Beloit, KS (67420)

11:41 AM CDT on March 29, 2017 (GMT -0500)
Kansas | | Change Station

Elev 1404 ft 39.46 °N, 98.10 °W | Updated 1 second ago

Rain
Rain
46.2 °F
Feels Like 44 °F
N
4.7
Wind Variable Wind from NE
Gusts 21.0 mph

Today
High -- | Low -- °F
--% Chance of Precip.
Yesterday
High -- | Low -- °F
Precip. -- in
Pressure 29.81 in
Visibility 2.5 miles
Clouds Mostly Cloudy 900 ft
Overcast 1400 ft
Windchill 44 °F
Dew Point 45 °F
Humidity 97%
Rainfall 0.56 in
Snow Depth Not available.
7:21 AM 7:53 PM
Waxing Crescent, 3% visible
SPECI KCNK 291634Z AUTO 02019G25KT 2 1/2SM +RA BR BKN009 OVC014 08/07 A2981 RMK AO2 PK WND 02027/1620 P0012 T00780072
Pressure 29.81 in
Visibility 2.5 miles
Clouds Mostly Cloudy 900 ft
Overcast 1400 ft
Windchill 44 °F
Dew Point 45 °F
Humidity 97%
Rainfall 0.56 in
Snow Depth Not available.
7:21 AM 7:53 PM
Waxing Crescent, 3% visible
SPECI KCNK 291634Z AUTO 02019G25KT 2 1/2SM +RA BR BKN009 OVC014 08/07 A2981 RMK AO2 PK WND 02027/1620 P0012 T00780072

Get Severe Weather Alerts

Thanks for signing up!

Be on the lookout for a verification email in your inbox.

You'll start receiving the daily forecast at 8 AM.

×

10-Day Weather Forecast

Almanac

Astronomy

Mar. 29, 2017 Rise Set
Actual Time
Civil Twilight
Nautical Twilight
Astronomical Twilight
Moon
Length of Visible Light
Length of Day
Tomorrow will be .
, % of the Moon is Illuminated

Today's Extremes

State Highs State Lows

Community

WunderPhotos

Upload Photos

1,962,540 photos uploaded!

WunderBlog® & News

Nearby

Air Quality

  Air Quality AQ Index Pollutant
Not available.

Snow Depth

Station Depth Elevation

Earthquake Activity

City Distance Mag. Time & Date
Minimum magnitude displayed is 2.5.

Earthquake Activity

City Distance Mag. Time & Date
Minimum magnitude displayed is 2.5.

Coastal Water Temperatures

Place Temperature

Stations

Nearby Weather Stations

Station Location Temp. Windchill Dew Point Humidity Wind Precip. Elev Updated Type
                   

Watches & Warnings

There are currently no watches in effect.